Terminal Aerodrome Forecast
Issued by NWS Billings, MT

Home | Current Version | Previous Version | Text Only | Print | Product List | Glossary On
Versions: 1 2 3 4 5 6 7 8 9 10 11 12 13 14 15 16 17 18 19 20 21 22 23 24
000
FTUS45 KBYZ 251121
TAFBIL
TAF
KBIL 251121Z 2512/2612 24014KT P6SM SCT150
     FM251600 25019G27KT P6SM SCT100 BKN150
     FM260500 24014KT P6SM SCT080 BKN120=

USA.gov is the U.S. government's official web portal to all federal, state and local government web resources and services.